createdAt,value
2018-06-21T00:01:12.363Z,2.72
2018-06-21T00:03:38.832Z,2.73
2018-06-21T00:06:05.306Z,3.10
2018-06-21T00:08:32.064Z,2.43
2018-06-21T00:10:59.068Z,2.73
2018-06-21T00:13:25.540Z,2.77
2018-06-21T00:15:51.975Z,2.73
2018-06-21T00:18:18.552Z,2.37
2018-06-21T00:20:45.020Z,2.50
2018-06-21T00:23:11.566Z,3.10
2018-06-21T00:25:38.108Z,3.00
2018-06-21T00:28:04.831Z,2.77
2018-06-21T00:30:31.304Z,2.63
2018-06-21T00:32:57.800Z,3.12
2018-06-21T00:35:24.374Z,2.55
2018-06-21T00:37:50.922Z,2.40
2018-06-21T00:40:17.376Z,2.80
2018-06-21T00:42:44.330Z,2.70
2018-06-21T00:45:10.964Z,2.80
2018-06-21T00:47:37.450Z,2.67
2018-06-21T00:50:03.903Z,2.70
2018-06-21T00:52:30.340Z,2.85
2018-06-21T00:54:56.800Z,2.70
2018-06-21T00:57:23.300Z,2.57
2018-06-21T00:59:49.780Z,2.70
2018-06-21T01:02:16.278Z,3.00
2018-06-21T01:04:42.855Z,2.67
2018-06-21T01:07:09.350Z,2.43
2018-06-21T01:09:35.819Z,3.33
2018-06-21T01:12:02.284Z,2.90
2018-06-21T01:14:28.769Z,3.20
2018-06-21T01:16:55.224Z,2.90
2018-06-21T01:19:21.662Z,2.63
2018-06-21T01:21:48.130Z,2.55
2018-06-21T01:24:14.570Z,2.70
2018-06-21T01:26:41.094Z,2.77
2018-06-21T01:29:08.039Z,2.67
2018-06-21T01:31:34.680Z,2.90
2018-06-21T01:34:01.205Z,2.80
2018-06-21T01:36:27.677Z,2.63
2018-06-21T01:38:54.163Z,3.42
2018-06-21T01:41:20.718Z,2.70
2018-06-21T01:43:47.173Z,2.70
2018-06-21T01:46:13.630Z,2.75
2018-06-21T01:48:40.096Z,2.80
2018-06-21T01:51:06.592Z,2.77
2018-06-21T01:53:33.084Z,2.80
2018-06-21T01:55:59.641Z,2.90
2018-06-21T01:58:26.149Z,2.87
2018-06-21T02:00:52.650Z,2.60
2018-06-21T02:03:19.161Z,2.80
2018-06-21T02:05:45.736Z,2.83
2018-06-21T02:08:12.233Z,2.83
2018-06-21T02:10:38.758Z,3.12
2018-06-21T02:13:05.220Z,3.00
2018-06-21T02:15:31.684Z,3.20
2018-06-21T02:17:58.197Z,3.13
2018-06-21T02:20:24.683Z,3.00
2018-06-21T02:22:51.131Z,3.35
2018-06-21T02:25:17.641Z,3.10
2018-06-21T02:27:44.093Z,3.20
2018-06-21T02:30:10.577Z,3.60
2018-06-21T02:32:37.227Z,3.17
2018-06-21T02:35:03.718Z,3.23
2018-06-21T02:37:30.729Z,3.10
2018-06-21T02:39:57.199Z,3.00
2018-06-21T02:42:23.660Z,3.23
2018-06-21T02:44:50.128Z,3.30
2018-06-21T02:47:16.602Z,3.30
2018-06-21T02:49:43.093Z,3.30
2018-06-21T02:52:09.569Z,2.90
2018-06-21T02:54:36.051Z,3.33
2018-06-21T02:57:02.816Z,3.33
2018-06-21T02:59:29.305Z,3.10
2018-06-21T03:01:55.779Z,3.33
2018-06-21T03:04:22.272Z,3.20
2018-06-21T03:06:48.796Z,3.47
2018-06-21T03:09:15.255Z,3.50
2018-06-21T03:11:41.763Z,3.30
2018-06-21T03:14:08.317Z,3.25
2018-06-21T03:16:34.911Z,3.23
2018-06-21T03:19:01.421Z,3.43
2018-06-21T03:21:28.123Z,3.50
2018-06-21T03:23:54.761Z,3.03
2018-06-21T03:26:21.187Z,3.50
2018-06-21T03:28:47.755Z,3.27
2018-06-21T03:31:14.215Z,3.90
2018-06-21T03:33:40.675Z,3.23
2018-06-21T03:36:07.097Z,3.83
2018-06-21T03:38:33.569Z,3.40
2018-06-21T03:41:00.031Z,3.73
2018-06-21T03:43:26.501Z,3.50
2018-06-21T03:45:52.999Z,3.40
2018-06-21T03:48:19.452Z,3.85
2018-06-21T03:50:46.409Z,3.13
2018-06-21T03:53:12.855Z,3.55
2018-06-21T03:55:39.360Z,3.70
2018-06-21T03:58:06.002Z,3.53
2018-06-21T04:00:32.519Z,3.37
2018-06-21T04:02:58.990Z,3.47
2018-06-21T04:05:26.437Z,3.25
2018-06-21T04:07:52.887Z,3.60
2018-06-21T04:10:19.360Z,3.40
2018-06-21T04:12:46.097Z,3.20
2018-06-21T04:15:12.807Z,3.50
2018-06-21T04:17:39.278Z,3.58
2018-06-21T04:20:05.836Z,3.40
2018-06-21T04:22:33.556Z,3.50
2018-06-21T04:25:00.107Z,3.33
2018-06-21T04:27:26.579Z,3.77
2018-06-21T04:29:53.137Z,3.55
2018-06-21T04:32:20.132Z,3.43
2018-06-21T04:34:46.616Z,4.10
2018-06-21T04:37:13.085Z,3.45
2018-06-21T04:39:39.568Z,3.50
2018-06-21T04:42:06.027Z,3.40
2018-06-21T04:44:32.474Z,3.30
2018-06-21T04:46:58.948Z,3.30
2018-06-21T04:49:25.430Z,3.20
2018-06-21T04:51:51.911Z,3.23
2018-06-21T04:54:18.403Z,3.40
2018-06-21T04:56:44.902Z,3.37
2018-06-21T04:59:12.016Z,3.13
2018-06-21T05:01:38.523Z,3.30
2018-06-21T05:04:05.004Z,3.70
2018-06-21T05:06:31.497Z,3.33
2018-06-21T05:08:58.006Z,3.70
2018-06-21T05:11:24.496Z,3.60
2018-06-21T05:13:51.098Z,3.40
2018-06-21T05:16:17.570Z,3.55
2018-06-21T05:18:44.056Z,3.83
2018-06-21T05:21:10.518Z,4.67
2018-06-21T05:23:36.984Z,4.00
2018-06-21T05:26:03.446Z,3.70
2018-06-21T05:28:30.042Z,3.73
2018-06-21T05:30:56.558Z,3.40
2018-06-21T05:33:23.035Z,3.27
2018-06-21T05:35:49.508Z,4.08
2018-06-21T05:38:15.977Z,3.53
2018-06-21T05:40:42.547Z,3.50
2018-06-21T05:43:09.025Z,3.23
2018-06-21T05:45:35.529Z,3.40
2018-06-21T05:48:03.836Z,3.92
2018-06-21T05:50:31.590Z,3.40
2018-06-21T05:52:59.180Z,4.20
2018-06-21T05:55:25.682Z,3.30
2018-06-21T05:57:52.147Z,3.70
2018-06-21T06:00:18.686Z,3.80
2018-06-21T06:02:45.789Z,3.83
2018-06-21T06:05:12.286Z,3.47
2018-06-21T06:07:38.866Z,3.95
2018-06-21T06:10:05.884Z,3.70
2018-06-21T06:12:32.820Z,3.30
2018-06-21T06:14:59.838Z,3.43
2018-06-21T06:17:26.334Z,3.40
2018-06-21T06:19:52.832Z,4.13
2018-06-21T06:22:19.298Z,3.65
2018-06-21T06:27:42.771Z,3.27
2018-06-21T06:30:09.361Z,3.33
2018-06-21T06:32:36.069Z,3.73
2018-06-21T06:35:02.536Z,3.07
2018-06-21T06:37:29.132Z,3.72
2018-06-21T06:39:55.640Z,4.42
2018-06-21T06:42:22.152Z,3.27
2018-06-21T06:44:48.613Z,4.13
2018-06-21T06:47:15.304Z,3.83
2018-06-21T06:49:41.807Z,3.53
2018-06-21T06:52:08.278Z,3.52
2018-06-21T06:54:34.762Z,3.43
2018-06-21T06:57:01.334Z,3.67
2018-06-21T06:59:27.793Z,3.03
2018-06-21T07:01:54.905Z,3.30
2018-06-21T07:04:21.370Z,3.40
2018-06-21T07:06:47.854Z,3.53
2018-06-21T07:09:14.454Z,3.70
2018-06-21T07:11:41.001Z,3.90
2018-06-21T07:14:07.588Z,4.22
2018-06-21T07:16:34.017Z,3.30
2018-06-21T07:19:00.469Z,3.27
2018-06-21T07:21:27.000Z,3.63
2018-06-21T07:23:53.453Z,3.70
2018-06-21T07:26:20.181Z,3.43
2018-06-21T07:28:46.801Z,3.67
2018-06-21T07:31:13.449Z,3.47
2018-06-21T07:33:40.133Z,3.50
2018-06-21T07:36:06.581Z,3.30
2018-06-21T07:38:33.828Z,3.80
2018-06-21T07:41:01.304Z,3.20
2018-06-21T07:43:27.813Z,3.20
2018-06-21T07:45:54.293Z,3.07
2018-06-21T07:48:21.265Z,3.00
2018-06-21T07:50:47.725Z,3.77
2018-06-21T07:53:14.243Z,3.92
2018-06-21T07:55:41.503Z,3.60
2018-06-21T07:58:08.949Z,3.27
2018-06-21T08:00:35.693Z,3.07
2018-06-21T08:03:02.201Z,3.10
2018-06-21T08:05:28.711Z,3.25
2018-06-21T08:07:55.289Z,2.90
2018-06-21T08:10:21.765Z,3.27
2018-06-21T08:12:48.958Z,3.30
2018-06-21T08:15:15.410Z,3.10
2018-06-21T08:17:41.931Z,3.40
2018-06-21T08:20:08.409Z,2.90
2018-06-21T08:22:35.490Z,3.10
2018-06-21T08:25:01.973Z,2.40
2018-06-21T08:27:28.457Z,4.13
2018-06-21T08:29:55.059Z,3.00
2018-06-21T08:32:22.252Z,3.35
2018-06-21T08:34:48.785Z,3.27
2018-06-21T08:37:15.602Z,3.93
2018-06-21T08:39:42.075Z,2.90
2018-06-21T08:42:08.580Z,2.93
2018-06-21T08:44:35.563Z,2.80
2018-06-21T08:47:02.125Z,3.30
2018-06-21T08:49:28.622Z,3.10
2018-06-21T08:51:55.176Z,3.10
2018-06-21T08:54:21.746Z,3.60
2018-06-21T08:56:48.259Z,3.07
2018-06-21T08:59:14.734Z,2.97
2018-06-21T09:01:41.231Z,3.17
2018-06-21T09:04:07.687Z,3.22
2018-06-21T09:06:34.173Z,3.07
2018-06-21T09:09:00.644Z,3.10
2018-06-21T09:11:27.212Z,2.97
2018-06-21T09:13:53.701Z,2.93
2018-06-21T09:16:20.194Z,3.47
2018-06-21T09:18:46.661Z,3.30
2018-06-21T09:21:13.169Z,3.00
2018-06-21T09:23:39.690Z,2.67
2018-06-21T09:26:06.301Z,2.70
2018-06-21T09:28:32.772Z,3.07
2018-06-21T09:30:59.300Z,2.80
2018-06-21T09:33:26.482Z,3.10
2018-06-21T09:35:53.420Z,3.27
2018-06-21T09:38:25.429Z,3.42
2018-06-21T09:40:57.499Z,2.80
2018-06-21T09:43:29.658Z,3.10
2018-06-21T09:46:01.747Z,2.60
2018-06-21T09:48:30.511Z,2.60
2018-06-21T09:50:57.562Z,2.60
2018-06-21T09:53:24.645Z,3.03
2018-06-21T09:55:51.624Z,3.10
2018-06-21T09:58:18.124Z,2.93
2018-06-21T10:00:50.239Z,3.10
2018-06-21T10:03:16.795Z,2.60
2018-06-21T10:05:43.540Z,2.97
2018-06-21T10:08:10.080Z,2.93
2018-06-21T10:10:37.186Z,2.80
2018-06-21T10:13:03.663Z,2.67
2018-06-21T10:15:30.208Z,3.00
2018-06-21T10:17:56.682Z,3.05
2018-06-21T10:20:23.178Z,2.70
2018-06-21T10:22:49.657Z,2.97
2018-06-21T10:25:16.119Z,2.30
2018-06-21T10:27:42.588Z,2.40
2018-06-21T10:30:09.612Z,2.72
2018-06-21T10:32:42.466Z,2.50
2018-06-21T10:35:08.967Z,2.60
2018-06-21T10:37:35.421Z,2.40
2018-06-21T10:40:01.912Z,2.35
2018-06-21T10:42:28.430Z,2.53
2018-06-21T10:44:54.896Z,2.40
2018-06-21T10:47:21.382Z,2.67
2018-06-21T10:49:47.842Z,2.45
2018-06-21T10:52:14.312Z,2.40
2018-06-21T10:54:40.788Z,2.60
2018-06-21T10:57:07.270Z,2.63
2018-06-21T10:59:33.798Z,2.77
2018-06-21T11:02:00.249Z,2.65
2018-06-21T11:04:26.734Z,2.50
2018-06-21T11:06:53.208Z,2.60
2018-06-21T11:09:19.670Z,2.43
2018-06-21T11:11:46.163Z,2.27
2018-06-21T11:14:12.685Z,2.50
2018-06-21T11:16:39.181Z,2.43
2018-06-21T11:19:06.467Z,2.65
2018-06-21T11:21:32.932Z,2.70
2018-06-21T11:23:59.431Z,2.50
2018-06-21T11:26:25.917Z,2.37
2018-06-21T11:28:52.445Z,2.40
2018-06-21T11:31:19.031Z,2.63
2018-06-21T11:33:45.570Z,2.40
2018-06-21T11:36:12.057Z,2.80
2018-06-21T11:38:38.537Z,2.30
2018-06-21T11:41:05.013Z,2.33
2018-06-21T11:43:32.027Z,2.67
2018-06-21T11:45:58.559Z,2.90
2018-06-21T11:48:25.023Z,2.60
2018-06-21T11:50:51.504Z,2.37
2018-06-21T11:53:17.981Z,2.40
2018-06-21T11:55:44.487Z,2.40
2018-06-21T11:58:11.026Z,2.40
2018-06-21T12:00:37.519Z,2.63
2018-06-21T12:03:04.157Z,2.80
2018-06-21T12:05:30.818Z,2.40
2018-06-21T12:07:57.323Z,2.40
2018-06-21T12:10:23.817Z,3.00
2018-06-21T12:12:50.289Z,2.45
2018-06-21T12:15:16.875Z,2.57
2018-06-21T12:17:43.439Z,2.53
2018-06-21T12:20:09.913Z,2.60
2018-06-21T12:22:36.640Z,2.77
2018-06-21T12:25:03.109Z,2.60
2018-06-21T12:27:29.586Z,2.47
2018-06-21T12:29:56.256Z,2.87
2018-06-21T12:32:22.757Z,2.60
2018-06-21T12:34:49.740Z,2.73
2018-06-21T12:37:16.236Z,2.17
2018-06-21T12:39:42.735Z,3.00
2018-06-21T12:42:09.273Z,2.40
2018-06-21T12:44:35.782Z,2.60
2018-06-21T12:47:02.245Z,2.33
2018-06-21T12:49:29.361Z,2.23
2018-06-21T12:51:55.839Z,2.52
2018-06-21T12:54:22.335Z,2.80
2018-06-21T12:56:48.826Z,2.33
2018-06-21T12:59:15.335Z,2.20
2018-06-21T13:01:41.811Z,2.35
2018-06-21T13:04:08.293Z,2.67
2018-06-21T13:06:34.783Z,2.30
2018-06-21T13:09:01.423Z,1.97
2018-06-21T13:11:28.278Z,1.93
2018-06-21T13:13:54.823Z,2.07
2018-06-21T13:16:21.355Z,2.37
2018-06-21T13:18:47.836Z,2.30
2018-06-21T13:21:14.337Z,2.00
2018-06-21T13:23:40.832Z,2.00
2018-06-21T13:26:07.308Z,1.87
2018-06-21T13:28:33.750Z,1.60
2018-06-21T13:31:00.214Z,2.10
2018-06-21T13:33:26.737Z,1.83
2018-06-21T13:35:53.250Z,2.65
2018-06-21T13:38:19.728Z,2.12
2018-06-21T13:40:46.342Z,2.00
2018-06-21T13:43:12.796Z,1.87
2018-06-21T13:45:39.266Z,2.03
2018-06-21T13:48:05.780Z,1.98
2018-06-21T13:50:32.239Z,2.15
2018-06-21T13:52:58.715Z,1.97
2018-06-21T13:55:26.134Z,1.97
2018-06-21T13:57:52.611Z,1.90
2018-06-21T14:00:19.088Z,1.90
2018-06-21T14:02:46.088Z,1.80
2018-06-21T14:05:12.555Z,1.70
2018-06-21T14:07:39.079Z,1.87
2018-06-21T14:10:05.466Z,2.00
2018-06-21T14:12:32.684Z,2.00
2018-06-21T14:14:59.204Z,2.17
2018-06-21T14:17:25.712Z,1.93
2018-06-21T14:19:52.233Z,1.90
2018-06-21T14:22:18.917Z,2.00
2018-06-21T14:24:45.399Z,2.10
2018-06-21T14:27:11.874Z,2.05
2018-06-21T14:29:38.333Z,2.10
2018-06-21T14:32:04.801Z,1.80
2018-06-21T14:34:31.265Z,2.00
2018-06-21T14:36:57.749Z,2.00
2018-06-21T14:39:24.189Z,2.07
2018-06-21T14:41:52.115Z,1.67
2018-06-21T14:44:18.560Z,2.17
2018-06-21T14:46:45.026Z,2.33
2018-06-21T14:49:11.498Z,2.17
2018-06-21T14:51:37.983Z,2.20
2018-06-21T14:54:04.439Z,2.10
2018-06-21T14:56:31.594Z,2.53
2018-06-21T14:58:58.146Z,2.50
2018-06-21T15:01:24.604Z,2.73
2018-06-21T15:03:51.060Z,2.33
2018-06-21T15:06:17.671Z,1.98
2018-06-21T15:08:44.204Z,2.17
2018-06-21T15:11:11.364Z,2.30
2018-06-21T15:13:37.876Z,1.80
2018-06-21T15:16:04.374Z,2.65
2018-06-21T15:18:30.936Z,2.57
2018-06-21T15:20:57.420Z,2.47
2018-06-21T15:23:23.886Z,2.33
2018-06-21T15:25:50.376Z,3.03
2018-06-21T15:28:16.846Z,2.60
2018-06-21T15:30:43.312Z,2.70
2018-06-21T15:33:09.778Z,2.73
2018-06-21T15:35:36.781Z,2.67
2018-06-21T15:38:03.292Z,1.97
2018-06-21T15:40:29.789Z,2.73
2018-06-21T15:42:56.323Z,2.00
2018-06-21T15:45:22.845Z,2.17
2018-06-21T15:47:49.448Z,2.43
2018-06-21T15:50:15.955Z,2.30
2018-06-21T15:52:42.439Z,2.37
2018-06-21T15:55:09.002Z,2.62
2018-06-21T15:57:35.623Z,1.90
2018-06-21T16:00:02.087Z,2.10
2018-06-21T16:02:28.710Z,2.43
2018-06-21T16:04:55.217Z,2.97
2018-06-21T16:07:21.747Z,2.10
2018-06-21T16:09:49.110Z,2.35
2018-06-21T16:12:15.624Z,3.60
2018-06-21T16:14:42.137Z,2.50
2018-06-21T16:17:08.703Z,2.70
2018-06-21T16:19:35.185Z,2.50
2018-06-21T16:22:01.655Z,2.93
2018-06-21T16:24:28.235Z,2.40
2018-06-21T16:26:54.716Z,2.63
2018-06-21T16:29:21.188Z,2.10
2018-06-21T16:31:47.759Z,2.67
2018-06-21T16:34:15.654Z,2.80
2018-06-21T16:36:42.106Z,2.37
2018-06-21T16:39:09.540Z,2.67
2018-06-21T16:41:36.045Z,3.00
2018-06-21T16:44:02.538Z,2.67
2018-06-21T16:46:29.058Z,2.87
2018-06-21T16:48:55.504Z,2.62
2018-06-21T16:51:21.994Z,2.73
2018-06-21T16:53:48.498Z,3.20
2018-06-21T16:56:15.019Z,3.03
2018-06-21T16:58:41.558Z,2.90
2018-06-21T17:01:08.875Z,2.83
2018-06-21T17:03:35.356Z,2.73
2018-06-21T17:06:01.829Z,2.73
2018-06-21T17:08:28.300Z,2.60
2018-06-21T17:10:54.860Z,2.43
2018-06-21T17:13:21.371Z,2.70
2018-06-21T17:15:47.858Z,3.43
2018-06-21T17:18:14.351Z,2.60
2018-06-21T17:20:41.296Z,4.05
2018-06-21T17:23:07.822Z,6.33
2018-06-21T17:25:34.448Z,9.73
2018-06-21T17:28:00.961Z,5.33
2018-06-21T17:30:27.482Z,2.20
2018-06-21T17:32:53.910Z,2.73
2018-06-21T17:35:20.427Z,1.80
2018-06-21T17:37:47.038Z,1.80
2018-06-21T17:40:13.546Z,1.50
2018-06-21T17:42:40.032Z,1.82
2018-06-21T17:45:06.536Z,2.10
2018-06-21T17:47:33.058Z,2.57
2018-06-21T17:49:59.552Z,1.83
2018-06-21T17:52:26.942Z,3.33
2018-06-21T17:54:53.399Z,2.10
2018-06-21T17:57:19.894Z,2.40
2018-06-21T17:59:46.557Z,2.10
2018-06-21T18:02:13.008Z,2.43
2018-06-21T18:04:39.475Z,2.20
2018-06-21T18:07:05.993Z,2.27
2018-06-21T18:09:32.552Z,2.77
2018-06-21T18:11:59.097Z,1.90
2018-06-21T18:14:25.584Z,2.17
2018-06-21T18:16:52.053Z,2.90
2018-06-21T18:19:18.538Z,3.20
2018-06-21T18:21:45.036Z,2.13
2018-06-21T18:24:11.553Z,2.20
2018-06-21T18:26:38.035Z,3.60
2018-06-21T18:29:04.563Z,2.30
2018-06-21T18:31:30.990Z,2.10
2018-06-21T18:33:57.491Z,2.43
2018-06-21T18:36:24.303Z,2.13
2018-06-21T18:38:50.828Z,2.10
2018-06-21T18:41:17.302Z,1.87
2018-06-21T18:43:43.756Z,2.20
2018-06-21T18:46:10.268Z,2.30
2018-06-21T18:48:36.769Z,2.13
2018-06-21T18:51:03.245Z,3.60
2018-06-21T18:53:29.783Z,1.92
2018-06-21T18:55:56.285Z,1.97
2018-06-21T18:58:23.330Z,2.47
2018-06-21T19:00:49.815Z,2.15
2018-06-21T19:03:16.355Z,1.77
2018-06-21T19:05:42.839Z,2.27
2018-06-21T19:08:15.048Z,2.17
2018-06-21T19:10:47.218Z,1.93
2018-06-21T19:13:13.836Z,1.83
2018-06-21T19:15:40.339Z,1.47
2018-06-21T19:18:06.969Z,1.50
2018-06-21T19:20:34.260Z,1.67
2018-06-21T19:23:00.842Z,1.70
2018-06-21T19:25:27.319Z,1.87
2018-06-21T19:27:53.807Z,2.00
2018-06-21T19:30:20.363Z,1.67
2018-06-21T19:32:48.549Z,1.63
2018-06-21T19:35:15.160Z,1.80
2018-06-21T19:37:41.669Z,1.43
2018-06-21T19:40:08.207Z,1.90
2018-06-21T19:42:34.677Z,1.77
2018-06-21T19:45:01.202Z,1.70
2018-06-21T19:47:27.731Z,1.40
2018-06-21T19:49:54.516Z,1.20
2018-06-21T19:52:20.991Z,1.50
2018-06-21T19:54:47.591Z,1.50
2018-06-21T19:57:14.230Z,1.65
2018-06-21T19:59:40.805Z,1.50
2018-06-21T20:02:07.365Z,1.30
2018-06-21T20:04:33.838Z,1.40
2018-06-21T20:07:00.335Z,1.47
2018-06-21T20:09:26.845Z,1.40
2018-06-21T20:11:53.335Z,1.30
2018-06-21T20:14:19.815Z,1.50
2018-06-21T20:16:46.367Z,1.80
2018-06-21T20:19:14.279Z,2.70
2018-06-21T20:21:40.831Z,1.60
2018-06-21T20:24:07.927Z,1.70
2018-06-21T20:26:34.390Z,2.52
2018-06-21T20:29:00.919Z,1.40
2018-06-21T20:31:27.453Z,2.63
2018-06-21T20:33:53.960Z,1.50
2018-06-21T20:36:25.020Z,3.27
2018-06-21T20:38:51.525Z,1.30
2018-06-21T20:41:18.169Z,1.70
2018-06-21T20:43:44.707Z,1.47
2018-06-21T20:46:11.221Z,1.32
2018-06-21T20:48:37.796Z,2.00
2018-06-21T20:51:04.291Z,1.40
2018-06-21T20:53:30.747Z,1.50
2018-06-21T20:55:57.250Z,1.10
2018-06-21T20:58:23.715Z,1.37
2018-06-21T21:00:50.283Z,1.17
2018-06-21T21:03:16.744Z,1.40
2018-06-21T21:05:43.207Z,1.33
2018-06-21T21:08:09.722Z,1.37
2018-06-21T21:10:36.210Z,1.30
2018-06-21T21:13:02.740Z,1.20
2018-06-21T21:15:29.245Z,1.57
2018-06-21T21:17:55.822Z,1.37
2018-06-21T21:20:22.299Z,1.00
2018-06-21T21:22:48.822Z,1.22
2018-06-21T21:25:15.298Z,1.50
2018-06-21T21:27:41.810Z,1.30
2018-06-21T21:30:08.934Z,1.40
2018-06-21T21:32:35.430Z,1.30
2018-06-21T21:35:01.900Z,1.20
2018-06-21T21:37:28.758Z,1.30
2018-06-21T21:39:55.280Z,1.30
2018-06-21T21:42:22.037Z,1.30
2018-06-21T21:44:48.496Z,1.27
2018-06-21T21:47:14.980Z,1.30
2018-06-21T21:49:41.475Z,1.47
2018-06-21T21:52:08.074Z,1.53
2018-06-21T21:54:35.079Z,1.30
2018-06-21T21:57:01.608Z,1.50
2018-06-21T21:59:28.125Z,1.60
2018-06-21T22:01:54.697Z,1.92
2018-06-21T22:04:21.236Z,1.67
2018-06-21T22:06:47.693Z,1.60
2018-06-21T22:09:14.152Z,1.20
2018-06-21T22:11:40.606Z,1.40
2018-06-21T22:14:07.044Z,1.40
2018-06-21T22:16:35.126Z,1.20
2018-06-21T22:19:01.672Z,1.55
2018-06-21T22:21:28.139Z,1.47
2018-06-21T22:23:54.623Z,1.40
2018-06-21T22:26:21.066Z,1.30
2018-06-21T22:28:47.543Z,1.73
2018-06-21T22:31:14.010Z,1.42
2018-06-21T22:33:40.492Z,1.30
2018-06-21T22:36:06.978Z,1.43
2018-06-21T22:38:33.459Z,1.47
2018-06-21T22:40:59.908Z,1.42
2018-06-21T22:43:26.365Z,1.60
2018-06-21T22:45:52.797Z,1.30
2018-06-21T22:48:19.265Z,1.32
2018-06-21T22:50:45.746Z,1.30
2018-06-21T22:53:12.259Z,1.67
2018-06-21T22:55:38.741Z,1.20
2018-06-21T22:58:05.247Z,1.20
2018-06-21T23:00:31.677Z,1.20
2018-06-21T23:02:58.784Z,1.30
2018-06-21T23:05:25.247Z,1.52
2018-06-21T23:07:51.771Z,1.50
2018-06-21T23:10:18.480Z,1.17
2018-06-21T23:12:45.541Z,1.33
2018-06-21T23:15:12.047Z,1.40
2018-06-21T23:17:38.594Z,1.27
2018-06-21T23:20:05.108Z,1.40
2018-06-21T23:22:31.549Z,1.90
2018-06-21T23:24:58.165Z,1.17
2018-06-21T23:27:24.644Z,1.50
2018-06-21T23:29:51.107Z,1.07
2018-06-21T23:32:17.594Z,1.40
2018-06-21T23:34:44.111Z,1.30
2018-06-21T23:37:10.629Z,1.35
2018-06-21T23:39:37.062Z,1.30
2018-06-21T23:42:03.554Z,1.20
2018-06-21T23:44:30.034Z,1.10
2018-06-21T23:46:56.514Z,1.37
2018-06-21T23:49:22.997Z,1.33
2018-06-21T23:51:49.459Z,1.27
2018-06-21T23:54:15.940Z,1.40
2018-06-21T23:56:43.325Z,1.30
2018-06-21T23:59:09.797Z,1.57
